This demonstration page uses our WeatherBlox Daily Observations layout. Learn more.

Left ArrowRight Arrow

39.92423, -83.80882

Hourly Observations for August 24, 2019

Temp ( °F °C ) Dew Point ( °F °C ) Humidity (%) Winds ( mph kmh ) Pressure ( in mb ) Visibility ( mi km ) Precip ( " mm )
12:56 am 00:56 Clear 56 13.3 53 11.7 90 90 ENE 7 11 30.2 1023 10 16.0934 N/A
1:56 am 01:56 Clear 54 12.2 52 11.1 93 93 NE 6 9 30.2 1023 10 16.0934 N/A
2:56 am 02:56 Clear 54 12.2 53 11.7 97 97 NE 6 9 30.2 1023 10 16.0934 N/A
3:56 am 03:56 Clear 54 12.2 52 11.1 93 93 NE 6 9 30.21 1023 10 16.0934 N/A
4:56 am 04:56 Clear 54 12.2 53 11.7 97 97 N 3 6 30.22 1023 10 16.0934 N/A
5:56 am 05:56 Clear 53 11.7 52 11.1 96 96 NNE 5 7 30.23 1024 10 16.0934 N/A
6:56 am 06:56 Sunny 53 11.7 53 11.7 100 100 NNE 6 9 30.24 1024 10 16.0934 N/A
7:56 am 07:56 Sunny 58 14.4 56 13.3 93 93 NNE 7 11 30.23 1024 10 16.0934 N/A
8:56 am 08:56 Sunny 63 17.2 58 14.4 84 84 NE 9 15 30.24 1024 10 16.0934 N/A
9:56 am 09:56 Sunny 67 19.4 58 14.4 73 73 ENE 15 24 30.24 1024 10 16.0934 N/A
10:56 am 10:56 Mostly Sunny 70 21.1 58 14.4 66 66 ENE 15 24 30.24 1024 10 16.0934 N/A
11:56 am 11:56 Sunny 72 22.2 56 13.3 57 57 ENE 13 20 30.24 1024 10 16.0934 N/A
12:56 pm 12:56 Mostly Cloudy 72 22.2 55 12.8 55 55 NE 9 15 30.23 1024 10 16.0934 N/A
1:56 pm 13:56 Cloudy 75 23.9 54 12.2 48 48 E 12 19 30.21 1023 10 16.0934 N/A
2:56 pm 14:56 Partly Cloudy 76 24.4 54 12.2 47 47 ENE 8 13 30.2 1023 10 16.0934 N/A
3:56 pm 15:56 Sunny 77 25 52 11.1 42 42 E 12 19 30.17 1022 10 16.0934 N/A
4:56 pm 16:56 Sunny 76 24.4 53 11.7 45 45 ENE 14 22 30.16 1021 10 16.0934 N/A
5:56 pm 17:56 Sunny 75 23.9 54 12.2 48 48 NE 15 24 30.16 1021 10 16.0934 N/A
6:56 pm 18:56 Sunny 73 22.8 54 12.2 51 51 ENE 12 19 30.16 1021 10 16.0934 N/A
7:56 pm 19:56 Sunny 69 20.6 55 12.8 61 61 ENE 9 15 30.16 1021 10 16.0934 N/A
8:56 pm 20:56 Clear 63 17.2 55 12.8 76 76 ENE 6 9 30.18 1022 10 16.0934 N/A
9:56 pm 21:56 Clear 59 15 54 12.2 83 83 ENE 7 11 30.19 1023 10 16.0934 N/A
10:56 pm 22:56 Clear 59 15 54 12.2 83 83 ENE 6 9 30.2 1023 10 16.0934 N/A
11:56 pm 23:56 Clear 56 13.3 54 12.2 93 93 NE 8 13 30.21 1023 10 16.0934 N/A

Powered by AerisWeather